11 agosto 2022

Tempo Codice Tempo metereologico Temp. Vista Base nuvolosa Vento METAR/SPECI
18:55
V
31 °C 10 km+ - 040° 040° 9 kt METAR EHDL 111655Z AUTO 04009KT 310V120 9999 NCD 31/09 Q1019 BLU
18:25
V
31 °C 10 km+ - Var Var 10 kt METAR EHDL 111625Z AUTO VRB10KT 9999 NCD 31/09 Q1019 BLU
17:55
V
32 °C 10 km+ - Var Var 10 kt METAR EHDL 111555Z AUTO VRB10KT 9999 NCD 32/07 Q1020 BLU
17:25
V
32 °C 10 km+ - Var Var 10 kt METAR EHDL 111525Z AUTO VRB10KT 9999 SCT400 32/08 Q1020 BLU
16:55
V
31 °C 10 km+ - Var Var 8 kt METAR EHDL 111455Z AUTO VRB08KT 9999 NCD 31/07 Q1020 BLU
16:25
V
32 °C 10 km+ - Var Var 6 kt METAR EHDL 111425Z AUTO VRB06KT 9999 NCD 32/08 Q1020 BLU
15:55
V
31 °C 10 km+ - Var Var 5 kt METAR EHDL 111355Z AUTO VRB05KT 9999 NCD 31/07 Q1021 BLU
14:55
V
32 °C 10 km+ - Var Var 7 kt METAR EHDL 111255Z AUTO VRB07KT 9999 NCD 32/06 Q1021 BLU
14:25
V
31 °C 10 km+ - Var Var 9 kt METAR EHDL 111225Z AUTO VRB09KT 9999 NCD 31/07 Q1021 BLU
13:55
V
31 °C 10 km+ - Var Var 8 kt METAR EHDL 111155Z AUTO VRB08KT 9999 NCD 31/07 Q1022 BLU
13:25
V
30 °C 10 km+ - Var Var 7 kt METAR EHDL 111125Z AUTO VRB07KT 9999 NCD 30/09 Q1022 BLU
12:55
V
30 °C 10 km+ - 100° 100° 10 kt METAR EHDL 111055Z AUTO 10010KT 9999 NCD 30/08 Q1022 BLU
12:25
V
29 °C 10 km+ - Var 000° 0 kt METAR EHDL 111025Z AUTO /////KT 9999 ////// 29/08 Q1022 BLU
11:55
V
29 °C 10 km+ - Var 000° 0 kt METAR EHDL 110955Z AUTO /////KT 9999 ////// 29/09 Q1022 BLU
11:25
L
29 °C 0 m - 090° 090° 5 kt METAR EHDL 110925Z AUTO 09005KT //// // NCD 29/10 Q1023 RE//
10:55
V
28 °C 10 km+ - Var Var 5 kt METAR EHDL 110855Z AUTO VRB05KT 9999 NCD 28/10 Q1023 REUP BLU
10:25
V
26 °C 10 km+ - Var Var 6 kt METAR EHDL 110825Z AUTO VRB06KT 9999 NCD 26/10 Q1023 BLU
09:55
V
25 °C 10 km+ - Var Var 6 kt METAR EHDL 110755Z AUTO VRB06KT 9999 NCD 25/11 Q1023 BLU
09:25
V
23 °C 10 km+ - Var Var 6 kt METAR EHDL 110725Z AUTO VRB06KT 9999 NCD 23/12 Q1023 BLU
08:55
V
22 °C 10 km+ - 100° 100° 6 kt METAR EHDL 110655Z AUTO 10006KT 010V170 9999 NCD 22/12 Q1023 BLU
08:25
V
21 °C 10 km+ - Var Var 5 kt METAR EHDL 110625Z AUTO VRB05KT 9999 NCD 21/12 Q1023 BLU
07:55
V
19 °C 10 km+ - 080° 080° 5 kt METAR EHDL 110555Z AUTO 08005KT 350V140 9999 NCD 19/13 Q1023 BLU
07:25
V
17 °C 10 km+ - Var Var 3 kt METAR EHDL 110525Z AUTO VRB03KT 9999 NCD 17/13 Q1023 BLU
06:55
V
16 °C 10 km+ - 080° 080° 3 kt METAR EHDL 110455Z AUTO 08003KT 350V130 9999 NCD 16/13 Q1023 BLU
06:25
V
16 °C 10 km+ - 070° 070° 5 kt METAR EHDL 110425Z AUTO 07005KT 350V130 9999 NCD 16/13 Q1023 BLU
05:55
V
16 °C 10 km+ - 080° 080° 5 kt METAR EHDL 110355Z AUTO 08005KT 360V120 9999 NCD 16/13 Q1023 BLU
05:25
V
16 °C 10 km+ - 070° 070° 6 kt METAR EHDL 110325Z AUTO 07006KT 340V130 9999 NCD 16/13 Q1023 BLU
04:55
V
17 °C 10 km+ - 070° 070° 6 kt METAR EHDL 110255Z AUTO 07006KT 360V100 9999 NCD 17/13 Q1023 BLU
04:25
V
17 °C 10 km+ - 070° 070° 7 kt METAR EHDL 110225Z AUTO 07007KT 350V110 9999 NCD 17/12 Q1023 BLU
03:55
V
17 °C 10 km+ - 060° 060° 6 kt METAR EHDL 110155Z AUTO 06006KT 340V100 9999 NCD 17/12 Q1023 BLU
03:25
V
17 °C 10 km+ - 060° 060° 6 kt METAR EHDL 110125Z AUTO 06006KT 350V100 9999 NCD 17/11 Q1023 BLU
02:55
V
18 °C 10 km+ - 060° 060° 6 kt METAR EHDL 110055Z AUTO 06006KT 340V100 9999 NCD 18/11 Q1023 BLU
02:25
V
18 °C 10 km+ - 070° 070° 6 kt METAR EHDL 110025Z AUTO 07006KT 360V100 9999 NCD 18/11 Q1023 BLU RMK CB INFO NOT AVBL
01:55
V
18 °C 10 km+ - 070° 070° 6 kt METAR EHDL 102355Z AUTO 07006KT 340V120 9999 NCD 18/11 Q1023 BLU
01:25
V
18 °C 10 km+ - 060° 060° 4 kt METAR EHDL 102325Z AUTO 06004KT 340V100 9999 NCD 18/11 Q1023 BLU
00:55
V
19 °C 10 km+ - 060° 060° 6 kt METAR EHDL 102255Z AUTO 06006KT 350V090 9999 NCD 19/11 Q1023 BLU
00:25
V
19 °C 10 km+ - 050° 050° 6 kt METAR EHDL 102225Z AUTO 05006KT 350V070 9999 NCD 19/11 Q1023 BLU

10 agosto 2022

Tempo Codice Tempo metereologico Temp. Vista Base nuvolosa Vento METAR/SPECI
23:55
V
20 °C 10 km+ - 060° 060° 6 kt METAR EHDL 102155Z AUTO 06006KT 360V120 9999 NCD 20/10 Q1023 BLU
23:25
V
20 °C 10 km+ - 050° 050° 6 kt METAR EHDL 102125Z AUTO 05006KT 350V110 9999 NCD 20/11 Q1023 BLU
22:55
V
20 °C 10 km+ - 050° 050° 7 kt METAR EHDL 102055Z AUTO 05007KT 350V090 9999 NCD 20/11 Q1023 BLU
22:25
V
20 °C 10 km+ - 040° 040° 6 kt METAR EHDL 102025Z AUTO 04006KT 010V070 9999 NCD 20/11 Q1023 BLU
21:55
V
20 °C 10 km+ - 040° 040° 7 kt METAR EHDL 101955Z AUTO 04007KT 350V070 9999 NCD 20/12 Q1023 BLU
21:25
V
23 °C 10 km+ - 040° 040° 6 kt METAR EHDL 101925Z AUTO 04006KT 9999 NCD 23/11 Q1023 BLU
20:55
V
25 °C 10 km+ - 050° 050° 6 kt METAR EHDL 101855Z AUTO 05006KT 350V090 9999 NCD 25/10 Q1023 BLU
20:25
V
27 °C 10 km+ - 060° 060° 8 kt METAR EHDL 101825Z AUTO 06008KT 350V120 9999 NCD 27/09 Q1023 BLU
19:55
V
28 °C 10 km+ - Var Var 9 kt METAR EHDL 101755Z AUTO VRB09KT 9999 NCD 28/09 Q1023 BLU
19:25
V
29 °C 10 km+ - Var Var 9 kt METAR EHDL 101725Z AUTO VRB09KT 9999 NCD 29/08 Q1023 BLU
18:55
V
29 °C 10 km+ - Var Var 8 kt METAR EHDL 101655Z AUTO VRB08KT 9999 NCD 29/08 Q1023 BLU
18:25
V
29 °C 10 km+ - Var Var 8 kt METAR EHDL 101625Z AUTO VRB08KT 9999 NCD 29/08 Q1023 BLU
17:55
V
30 °C 10 km+ - 050° 050° 9 kt METAR EHDL 101555Z AUTO 05009KT 330V140 9999 NCD 30/08 Q1023 BLU
17:25
V
30 °C 10 km+ - Var Var 9 kt METAR EHDL 101525Z AUTO VRB09KT 9999 NCD 30/08 Q1024 BLU
16:55
V
30 °C 10 km+ - Var Var 8 kt METAR EHDL 101455Z AUTO VRB08KT 9999 NCD 30/10 Q1024 BLU
16:25
V
30 °C 10 km+ - Var Var 9 kt METAR EHDL 101425Z AUTO VRB09KT 9999 NCD 30/10 Q1024 BLU
15:55
V
30 °C 10 km+ - Var Var 6 kt METAR EHDL 101355Z AUTO VRB06KT 9999 NCD 30/10 Q1024 BLU
15:25
V
30 °C 10 km+ - Var Var 7 kt METAR EHDL 101325Z AUTO VRB07KT 9999 NCD 30/09 Q1024 BLU
14:55
V
30 °C 10 km+ - Var Var 6 kt METAR EHDL 101255Z AUTO VRB06KT 9999 NCD 30/11 Q1025 BLU
14:25
V
29 °C 10 km+ - Var Var 7 kt METAR EHDL 101225Z AUTO VRB07KT 9999 NCD 29/09 Q1025 BLU
13:55
V
29 °C 10 km+ - 080° 080° 8 kt METAR EHDL 101155Z AUTO 08008KT 9999 NCD 29/09 Q1025 BLU
13:25
V
28 °C 10 km+ - 080° 080° 8 kt METAR EHDL 101125Z AUTO 08008KT 340V140 9999 NCD 28/11 Q1025 BLU
12:55
V
28 °C 10 km+ 40.000 ft Var Var 8 kt METAR EHDL 101055Z AUTO VRB08KT 9999 BKN400 28/11 Q1026 BLU
12:25
V
27 °C 10 km+ - Var Var 8 kt METAR EHDL 101025Z AUTO VRB08KT 9999 FEW390 27/11 Q1026 BLU
11:55
V
27 °C 10 km+ 39.000 ft 050° 050° 9 kt METAR EHDL 100955Z AUTO 05009KT 320V130 9999 BKN390 27/11 Q1026 BLU
11:25
V
26 °C 10 km+ 39.000 ft Var Var 7 kt METAR EHDL 100925Z AUTO VRB07KT 9999 OVC390 26/12 Q1026 BLU
10:55
V
25 °C 10 km+ 39.000 ft 060° 060° 6 kt METAR EHDL 100855Z AUTO 06006KT 330V120 9999 BKN390 25/13 Q1027 BLU
10:25
V
24 °C 10 km+ - 070° 070° 5 kt METAR EHDL 100825Z AUTO 07005KT 360V140 9999 NCD 24/13 Q1027 BLU
09:55
V
23 °C 10 km+ 39.000 ft Var Var 5 kt METAR EHDL 100755Z AUTO VRB05KT 9999 OVC390 23/13 Q1027 BLU
09:25
V
20 °C 10 km+ 39.000 ft Var Var 4 kt METAR EHDL 100725Z AUTO VRB04KT 9999 BKN390 20/14 Q1027 BLU
08:55
V
19 °C 10 km+ 40.000 ft Var Var 5 kt METAR EHDL 100655Z AUTO VRB05KT 9999 OVC400 19/14 Q1027 BLU
08:25
V
17 °C 10 km+ 40.000 ft Var Var 6 kt METAR EHDL 100625Z AUTO VRB06KT 9999 OVC400 17/14 Q1027 BLU
07:55
V
16 °C 10 km+ - 070° 070° 5 kt METAR EHDL 100555Z AUTO 07005KT 340V150 9999 SCT400 16/13 Q1027 BLU
07:25
V
15 °C 10 km+ - 060° 060° 4 kt METAR EHDL 100525Z AUTO 06004KT 350V130 9999 NCD 15/13 Q1027 BLU
06:55
V
14 °C 10 km+ - 060° 060° 5 kt METAR EHDL 100455Z AUTO 06005KT 350V120 9999 SCT310 14/12 Q1027 BLU
06:25
V
14 °C 10 km+ 31.000 ft 050° 050° 5 kt METAR EHDL 100425Z AUTO 05005KT 350V110 9999 BKN310 BKN400 14/12 Q1027 BLU
05:55
V
14 °C 10 km+ 32.000 ft 040° 040° 4 kt METAR EHDL 100355Z AUTO 04004KT 330V100 9999 OVC320 14/12 Q1027 BLU
05:25
V
14 °C 10 km+ - 050° 050° 4 kt METAR EHDL 100325Z AUTO 05004KT 350V100 9999 NCD 14/12 Q1027 BLU
04:55
V
14 °C 10 km+ - Var Var 2 kt METAR EHDL 100255Z AUTO VRB02KT 9999 NCD 14/12 Q1027 BLU
04:25
V
15 °C 10 km+ - 060° 060° 3 kt METAR EHDL 100225Z AUTO 06003KT 350V090 9999 NCD 15/12 Q1027 BLU
03:55
V
15 °C 10 km+ - 050° 050° 6 kt METAR EHDL 100155Z AUTO 05006KT 350V090 9999 NCD 15/12 Q1027 BLU
03:25
V
15 °C 10 km+ - 050° 050° 7 kt METAR EHDL 100125Z AUTO 05007KT 350V100 9999 NCD 15/12 Q1027 BLU
02:55
V
16 °C 10 km+ - 060° 060° 7 kt METAR EHDL 100055Z AUTO 06007KT 340V090 9999 NCD 16/12 Q1027 BLU
02:25
V
16 °C 10 km+ - 060° 060° 8 kt METAR EHDL 100025Z AUTO 06008KT 340V090 9999 NCD 16/12 Q1027 BLU RMK CB INFO NOT AVBL
01:55
V
16 °C 10 km+ - 050° 050° 7 kt METAR EHDL 092355Z AUTO 05007KT 290V100 9999 NCD 16/12 Q1027 BLU
01:25
V
16 °C 10 km+ 34.000 ft 050° 050° 6 kt METAR EHDL 092325Z AUTO 05006KT 350V090 9999 BKN340 16/12 Q1027 BLU
00:55
V
17 °C 10 km+ - 050° 050° 8 kt METAR EHDL 092255Z AUTO 05008KT 350V090 9999 SCT370 17/12 Q1027 BLU
00:25
V
18 °C 10 km+ - 030° 030° 9 kt METAR EHDL 092225Z AUTO 03009KT 330V080 9999 NCD 18/12 Q1027 BLU

9 agosto 2022

Tempo Codice Tempo metereologico Temp. Vista Base nuvolosa Vento METAR/SPECI
23:55
V
19 °C 10 km+ - 030° 030° 10 kt METAR EHDL 092155Z AUTO 03010KT 330V090 9999 NCD 19/13 Q1027 BLU
23:25
V
19 °C 10 km+ - 030° 030° 10 kt METAR EHDL 092125Z AUTO 03010KT 320V080 9999 NCD 19/13 Q1027 BLU
22:55
V
20 °C 10 km+ - 020° 020° 9 kt METAR EHDL 092055Z AUTO 02009KT 320V070 9999 NCD 20/13 Q1027 BLU
22:25
V
20 °C 10 km+ - 030° 030° 9 kt METAR EHDL 092025Z AUTO 03009KT 330V100 9999 NCD 20/14 Q1027 BLU
21:55
V
21 °C 10 km+ - 030° 030° 7 kt METAR EHDL 091955Z AUTO 03007KT 320V110 9999 NCD 21/13 Q1027 BLU
21:25
V
22 °C 10 km+ - 030° 030° 8 kt METAR EHDL 091925Z AUTO 03008KT 330V090 9999 NCD 22/13 Q1027 BLU
20:55
V
23 °C 10 km+ - 020° 020° 8 kt METAR EHDL 091855Z AUTO 02008KT 330V090 9999 NCD 23/12 Q1027 BLU
20:25
V
24 °C 10 km+ - 030° 030° 8 kt METAR EHDL 091825Z AUTO 03008KT 320V090 9999 NCD 24/11 Q1027 BLU
19:55
V
25 °C 10 km+ - 030° 030° 11 kt METAR EHDL 091755Z AUTO 03011KT 320V120 9999 NCD 25/10 Q1027 BLU
19:25
V
26 °C 10 km+ 34.000 ft 040° 040° 10 kt METAR EHDL 091725Z AUTO 04010KT 310V120 9999 OVC340 26/11 Q1027 BLU
18:55
V
26 °C 10 km+ - 050° 050° 11 kt METAR EHDL 091655Z AUTO 05011KT 310V110 9999 NCD 26/11 Q1026 BLU
18:25
V
26 °C 10 km+ 36.000 ft 030° 030° 9 kt METAR EHDL 091625Z AUTO 03009KT 300V090 9999 BKN360 26/11 Q1027 BLU
17:55
V
26 °C 10 km+ - Var Var 11 kt METAR EHDL 091555Z AUTO VRB11KT 9999 NCD 26/11 Q1027 BLU
17:25
V
26 °C 10 km+ - Var Var 11 kt METAR EHDL 091525Z AUTO VRB11KT 9999 NCD 26/11 Q1027 BLU
16:55
V
27 °C 10 km+ 37.000 ft 030° 030° 10 - 22 kt METAR EHDL 091455Z AUTO 03010G22KT 300V100 9999 BKN370 27/11 Q1027 BLU
Dati più vecchi

Noi e le terze parti seguiamo il tuo comportamento in internet sul nostro sito web con i cookie. Se continui, riteniamo che tu sia d'accordo con la nostra politica sui cookie. Per saperne di più